Time;durP1;ratioP1;P1;durP2;ratioP2;P2;SDS_P1;SDS_P2;PMS_P1;PMS_P2;Temp;Humidity;BMP_temperature;BMP_pressure;BME280_temperature;BME280_humidity;BME280_pressure;Samples;Min_cycle;Max_cycle;Signal;HPM_P1;HPM_P2
2022/05/12 00:00:35;;;;;;;1.63;1.52;;;19.50;51.50;;;;;;4183083;28;20067;-81
2022/05/12 00:02:37;;;;;;;4.00;1.40;;;19.50;52.20;;;;;;4182672;28;20042;-79
2022/05/12 00:04:39;;;;;;;3.72;1.50;;;19.50;52.00;;;;;;4182910;28;20068;-81
2022/05/12 00:06:40;;;;;;;2.78;1.48;;;19.50;52.20;;;;;;4182947;28;20054;-80
2022/05/12 00:08:42;;;;;;;2.53;1.10;;;19.50;51.70;;;;;;4169888;28;20119;-80
2022/05/12 00:10:44;;;;;;;4.78;1.55;;;19.50;52.40;;;;;;4182484;28;20060;-80
2022/05/12 00:12:47;;;;;;;1.40;1.30;;;19.50;52.70;;;;;;4182716;28;20068;-80
2022/05/12 00:14:49;;;;;;;2.40;1.52;;;19.50;52.30;;;;;;4182701;28;20064;-80
2022/05/12 00:16:51;;;;;;;1.85;1.63;;;19.50;52.70;;;;;;4181840;28;20073;-80
2022/05/12 00:18:53;;;;;;;1.48;1.38;;;19.50;53.20;;;;;;4182366;28;20120;-80
2022/05/12 00:20:55;;;;;;;1.45;1.35;;;19.50;53.20;;;;;;4183044;28;20096;-79
2022/05/12 00:23:13;;;;;;;3.85;1.52;;;19.40;53.30;;;;;;4184297;28;20156;-80
2022/05/12 00:25:18;;;;;;;2.03;1.58;;;19.40;53.70;;;;;;4174480;28;20940;-80
2022/05/12 00:27:20;;;;;;;1.85;1.60;;;19.40;53.80;;;;;;4181963;28;20156;-80
2022/05/12 00:29:21;;;;;;;3.03;1.70;;;19.40;53.70;;;;;;4183255;28;20061;-80
2022/05/12 00:31:24;;;;;;;1.85;1.67;;;19.40;54.10;;;;;;4183384;28;20061;-81
2022/05/12 00:33:27;;;;;;;1.52;1.42;;;19.40;54.10;;;;;;4176708;28;20786;-80
2022/05/12 00:35:29;;;;;;;1.23;1.13;;;19.40;54.40;;;;;;4183715;28;20050;-79
2022/05/12 00:37:31;;;;;;;1.85;1.48;;;19.40;54.30;;;;;;4183145;28;20057;-80
2022/05/12 00:39:32;;;;;;;2.53;1.30;;;19.30;55.00;;;;;;4184013;28;20064;-79
2022/05/12 00:41:35;;;;;;;1.40;1.30;;;19.30;54.50;;;;;;4188909;28;20061;-79
2022/05/12 00:43:44;;;;;;;1.45;1.35;;;19.20;54.60;;;;;;4191371;28;20045;-80
2022/05/12 00:45:45;;;;;;;1.65;1.50;;;19.30;55.40;;;;;;4187867;28;20251;-81
2022/05/12 00:47:47;;;;;;;1.48;1.38;;;19.20;55.30;;;;;;4195904;28;20164;-80
2022/05/12 00:49:51;;;;;;;1.92;1.73;;;19.30;55.40;;;;;;4188275;28;20053;-81
2022/05/12 00:52:02;;;;;;;3.95;1.63;;;19.20;55.30;;;;;;4186035;28;20062;-80
2022/05/12 00:54:34;;;;;;;2.90;1.83;;;19.30;55.40;;;;;;4183653;28;20061;-80
2022/05/12 00:56:36;;;;;;;5.30;1.80;;;19.20;55.30;;;;;;4163178;28;20806;-79
2022/05/12 00:58:38;;;;;;;1.75;1.40;;;19.20;55.20;;;;;;4185772;28;21361;-80
2022/05/12 01:00:41;;;;;;;6.38;2.50;;;19.20;55.00;;;;;;4190212;28;20056;-79
2022/05/12 01:02:46;;;;;;;2.20;1.77;;;19.20;55.50;;;;;;4190812;28;20081;-80
2022/05/12 01:04:50;;;;;;;1.98;1.65;;;19.20;55.00;;;;;;4197685;28;20100;-79
2022/05/12 01:06:52;;;;;;;1.70;1.50;;;19.10;55.80;;;;;;4190834;28;20061;-81
2022/05/12 01:08:53;;;;;;;4.28;1.67;;;19.10;55.60;;;;;;4191460;28;20056;-80
2022/05/12 01:11:00;;;;;;;2.60;1.48;;;19.10;55.50;;;;;;4187573;28;20134;-80
2022/05/12 01:13:02;;;;;;;2.15;1.67;;;19.10;55.30;;;;;;4184072;28;20061;-80
2022/05/12 01:15:06;;;;;;;3.22;1.40;;;19.10;55.70;;;;;;4185952;28;20911;-80
2022/05/12 01:17:08;;;;;;;1.92;1.65;;;19.10;55.70;;;;;;4180032;28;20081;-79
2022/05/12 01:19:15;;;;;;;9.93;1.50;;;19.00;56.00;;;;;;4181194;28;20403;-79
2022/05/12 01:21:16;;;;;;;1.60;1.50;;;18.90;55.90;;;;;;4182142;28;20065;-79
2022/05/12 01:23:33;;;;;;;4.85;1.92;;;18.90;56.20;;;;;;4183619;28;20084;-80
2022/05/12 01:25:35;;;;;;;1.60;1.50;;;18.90;56.60;;;;;;4188327;28;20053;-80
2022/05/12 01:27:37;;;;;;;1.92;1.83;;;18.80;56.50;;;;;;4195265;28;20107;-79
2022/05/12 01:29:39;;;;;;;2.72;1.98;;;18.80;56.80;;;;;;4189116;28;20049;-79
2022/05/12 01:31:41;;;;;;;3.83;1.88;;;18.80;57.10;;;;;;4183688;28;20053;-80
2022/05/12 01:33:43;;;;;;;2.33;1.77;;;18.70;57.50;;;;;;4189244;28;20049;-79
2022/05/12 01:35:45;;;;;;;1.55;1.35;;;18.80;57.30;;;;;;4187706;28;20061;-79
2022/05/12 01:37:47;;;;;;;1.67;1.55;;;18.70;57.20;;;;;;4182859;28;20969;-80
2022/05/12 01:39:50;;;;;;;2.53;1.45;;;18.70;57.40;;;;;;4184443;28;20072;-79
2022/05/12 01:41:51;;;;;;;3.22;1.80;;;18.70;57.20;;;;;;4188331;28;20062;-79
2022/05/12 01:43:53;;;;;;;2.03;1.90;;;18.80;57.90;;;;;;4187603;28;20180;-81
2022/05/12 01:45:55;;;;;;;3.17;1.75;;;18.70;57.30;;;;;;4180316;28;20068;-79
2022/05/12 01:47:56;;;;;;;1.73;1.63;;;18.70;57.40;;;;;;4183278;28;20906;-80
2022/05/12 01:49:58;;;;;;;3.92;1.98;;;18.70;57.50;;;;;;4176490;28;20153;-80
2022/05/12 01:52:01;;;;;;;2.47;1.77;;;18.70;57.50;;;;;;4184556;28;20057;-79
2022/05/12 01:54:02;;;;;;;1.65;1.55;;;18.70;57.60;;;;;;4185228;28;20109;-80
2022/05/12 01:56:07;;;;;;;2.50;2.30;;;18.70;58.10;;;;;;4189229;28;20061;-79
2022/05/12 01:58:10;;;;;;;2.03;1.92;;;18.70;58.00;;;;;;4182924;28;20058;-78
2022/05/12 02:00:16;;;;;;;1.85;1.58;;;18.70;58.10;;;;;;4188700;28;20091;-80
2022/05/12 02:02:18;;;;;;;3.70;1.58;;;18.70;58.40;;;;;;4192900;28;20105;-78
2022/05/12 02:04:20;;;;;;;2.05;1.75;;;18.70;58.10;;;;;;4180272;28;20050;-78
2022/05/12 02:06:22;;;;;;;2.72;1.60;;;18.70;57.80;;;;;;4189080;28;20041;-79
2022/05/12 02:08:24;;;;;;;2.83;1.48;;;18.70;58.00;;;;;;4188245;28;20868;-79
2022/05/12 02:10:29;;;;;;;7.22;1.90;;;18.70;58.00;;;;;;4188301;28;20054;-79
2022/05/12 02:12:30;;;;;;;2.80;1.60;;;18.70;58.50;;;;;;4182123;28;20054;-79
2022/05/12 02:14:32;;;;;;;1.90;1.80;;;18.70;58.60;;;;;;4177602;28;20089;-80
2022/05/12 02:16:35;;;;;;;1.85;1.65;;;18.70;58.50;;;;;;4189812;28;20123;-79
2022/05/12 02:18:37;;;;;;;3.25;1.65;;;18.60;58.80;;;;;;4188483;28;20176;-78
2022/05/12 02:20:38;;;;;;;2.20;1.98;;;18.60;58.90;;;;;;4188366;28;20080;-79
2022/05/12 02:22:40;;;;;;;9.15;2.35;;;18.60;58.90;;;;;;4188065;28;20045;-78
2022/05/12 02:24:42;;;;;;;2.28;1.98;;;18.60;59.10;;;;;;4182526;28;20050;-79
2022/05/12 02:26:43;;;;;;;3.05;2.30;;;18.60;59.70;;;;;;4187815;28;20053;-79
2022/05/12 02:28:45;;;;;;;6.35;2.97;;;18.60;59.80;;;;;;4190809;28;20084;-79
2022/05/12 02:30:46;;;;;;;5.55;2.65;;;18.60;61.30;;;;;;4190681;28;20053;-79
2022/05/12 02:32:48;;;;;;;1.90;1.30;;;18.60;61.10;;;;;;4183544;28;20148;-79
2022/05/12 02:34:50;;;;;;;3.92;2.25;;;18.50;60.40;;;;;;4191453;28;20148;-78
2022/05/12 02:37:00;;;;;;;3.95;3.20;;;18.50;60.40;;;;;;4187443;28;20049;-79
2022/05/12 02:39:03;;;;;;;6.47;2.78;;;18.50;60.60;;;;;;4190900;28;20052;-79
2022/05/12 02:41:04;;;;;;;4.40;3.90;;;18.50;61.60;;;;;;4197163;28;20851;-78
2022/05/12 02:43:23;;;;;;;5.25;3.28;;;18.50;61.40;;;;;;4197170;28;20117;-79
2022/05/12 02:45:27;;;;;;;4.60;1.88;;;18.40;61.60;;;;;;4183292;28;20045;-79
2022/05/12 02:47:28;;;;;;;12.90;8.65;;;18.40;62.80;;;;;;4191018;28;20065;-80
2022/05/12 02:49:30;;;;;;;10.40;6.28;;;18.40;62.90;;;;;;4182380;28;20054;-80
2022/05/12 02:51:33;;;;;;;5.03;4.18;;;18.30;63.10;;;;;;4185922;28;20120;-79
2022/05/12 02:53:35;;;;;;;3.17;2.97;;;18.30;64.30;;;;;;4186458;28;20045;-80
2022/05/12 02:55:37;;;;;;;4.82;3.97;;;18.30;64.50;;;;;;4191634;28;20156;-80
2022/05/12 02:57:40;;;;;;;4.80;4.40;;;18.30;65.20;;;;;;4187868;28;20045;-79
2022/05/12 02:59:42;;;;;;;3.42;2.33;;;18.30;65.40;;;;;;4184083;28;20167;-79
2022/05/12 03:01:44;;;;;;;2.78;2.45;;;18.20;65.30;;;;;;4193348;28;20041;-79
2022/05/12 03:03:45;;;;;;;2.20;1.80;;;18.30;66.00;;;;;;4203239;28;20069;-80
2022/05/12 03:05:47;;;;;;;2.08;1.88;;;18.30;66.70;;;;;;4184214;28;20050;-79
2022/05/12 03:07:49;;;;;;;1.95;1.75;;;18.30;66.80;;;;;;4186537;28;20156;-79
2022/05/12 03:09:51;;;;;;;12.35;2.75;;;18.30;66.80;;;;;;4188036;28;20084;-79
2022/05/12 03:11:52;;;;;;;9.18;2.80;;;18.30;67.00;;;;;;4190279;28;20104;-79
2022/05/12 03:13:54;;;;;;;2.72;1.85;;;18.20;67.20;;;;;;4188125;28;21010;-78
2022/05/12 03:15:56;;;;;;;5.35;2.20;;;18.20;67.60;;;;;;4184427;28;20100;-79
2022/05/12 03:17:59;;;;;;;2.80;2.30;;;18.20;67.80;;;;;;4189640;28;20064;-79
2022/05/12 03:20:02;;;;;;;3.47;2.88;;;18.10;68.30;;;;;;4190173;28;20069;-78
2022/05/12 03:22:03;;;;;;;3.25;2.95;;;18.10;68.30;;;;;;4183209;28;20054;-79
2022/05/12 03:24:05;;;;;;;3.25;1.77;;;18.10;68.30;;;;;;4191191;28;20144;-79
2022/05/12 03:26:08;;;;;;;3.67;1.65;;;18.10;69.00;;;;;;4189102;28;20046;-79
2022/05/12 03:28:11;;;;;;;3.05;2.75;;;18.00;69.10;;;;;;4185384;28;20065;-79
2022/05/12 03:30:17;;;;;;;4.07;1.95;;;18.00;69.40;;;;;;4189834;28;20060;-79
2022/05/12 03:32:19;;;;;;;5.38;2.00;;;18.00;69.10;;;;;;4188268;28;20096;-80
2022/05/12 03:34:20;;;;;;;1.35;1.25;;;17.90;69.70;;;;;;4183577;28;20085;-79
2022/05/12 03:36:22;;;;;;;4.85;1.48;;;17.90;69.50;;;;;;4191871;28;20056;-78
2022/05/12 03:38:24;;;;;;;2.22;1.90;;;17.90;70.10;;;;;;4186193;28;20832;-78
2022/05/12 03:40:26;;;;;;;2.67;1.50;;;17.90;70.10;;;;;;4181336;28;20061;-78
2022/05/12 03:42:28;;;;;;;3.47;1.35;;;17.90;70.70;;;;;;4189451;28;20080;-79
2022/05/12 03:44:49;;;;;;;2.40;1.65;;;17.90;70.60;;;;;;4186535;28;20064;-78
2022/05/12 03:46:51;;;;;;;2.13;1.52;;;17.90;70.50;;;;;;4186789;28;20864;-79
2022/05/12 03:48:52;;;;;;;3.17;2.10;;;17.90;70.80;;;;;;4194057;28;20064;-79
2022/05/12 03:50:54;;;;;;;4.70;1.67;;;17.90;70.90;;;;;;4193381;28;20080;-79
2022/05/12 03:52:56;;;;;;;5.38;1.70;;;17.90;70.90;;;;;;4192373;28;20175;-78
2022/05/12 03:54:58;;;;;;;3.25;1.70;;;17.90;70.80;;;;;;4184696;28;20048;-78
2022/05/12 03:57:02;;;;;;;2.97;1.80;;;17.90;71.20;;;;;;4183365;28;20160;-79
2022/05/12 03:59:05;;;;;;;1.85;1.10;;;17.90;71.20;;;;;;4192820;28;20057;-78
2022/05/12 04:01:07;;;;;;;4.53;1.30;;;17.90;71.80;;;;;;4192651;28;20053;-78
2022/05/12 04:03:09;;;;;;;1.98;1.58;;;17.80;71.70;;;;;;4182605;28;20069;-78
2022/05/12 04:05:11;;;;;;;1.83;1.55;;;17.80;71.70;;;;;;4180874;28;20156;-76
2022/05/12 04:07:22;;;;;;;1.85;1.63;;;17.80;72.00;;;;;;4181980;28;20766;-77
2022/05/12 04:09:24;;;;;;;3.38;1.42;;;17.70;72.20;;;;;;4184522;28;20064;-79
2022/05/12 04:11:25;;;;;;;3.60;1.50;;;17.80;72.30;;;;;;4189101;28;20061;-77
2022/05/12 04:13:27;;;;;;;3.67;1.33;;;17.70;72.60;;;;;;4196030;28;20113;-78
2022/05/12 04:15:30;;;;;;;2.58;1.20;;;17.70;72.70;;;;;;4192641;28;20065;-78
2022/05/12 04:17:31;;;;;;;1.73;1.10;;;17.70;72.90;;;;;;4181814;28;20065;-78
2022/05/12 04:19:33;;;;;;;1.52;1.08;;;17.70;72.70;;;;;;4191156;28;20101;-77
2022/05/12 04:21:36;;;;;;;1.23;1.13;;;17.80;72.90;;;;;;4195266;28;20105;-79
2022/05/12 04:23:38;;;;;;;1.83;0.88;;;17.80;73.00;;;;;;4192478;28;20068;-79
2022/05/12 04:25:40;;;;;;;4.00;1.05;;;17.80;73.10;;;;;;4177503;28;20068;-79
2022/05/12 04:27:42;;;;;;;0.82;0.80;;;17.80;73.00;;;;;;4185546;28;20054;-78
2022/05/12 04:29:44;;;;;;;1.00;0.70;;;17.80;72.90;;;;;;4189891;28;20092;-79
2022/05/12 04:31:45;;;;;;;1.58;1.23;;;17.80;73.00;;;;;;4189137;28;20761;-79
2022/05/12 04:36:08;;;;;;;1.08;0.80;;;17.80;73.30;;;;;;4188806;28;20867;-80
2022/05/12 04:38:11;;;;;;;1.95;0.88;;;17.90;73.30;;;;;;4186113;28;20807;-76
2022/05/12 04:40:16;;;;;;;1.05;1.00;;;17.90;73.10;;;;;;4190057;28;20164;-78
2022/05/12 04:42:18;;;;;;;2.38;0.93;;;18.00;73.00;;;;;;4185752;28;20108;-79
2022/05/12 04:44:20;;;;;;;1.13;0.90;;;18.10;72.70;;;;;;4182871;28;20620;-79
2022/05/12 04:46:22;;;;;;;2.42;0.70;;;18.10;72.40;;;;;;4178560;28;20157;-78
2022/05/12 04:48:29;;;;;;;1.23;0.90;;;18.10;72.30;;;;;;4190163;28;20049;-79
2022/05/12 04:50:35;;;;;;;1.48;0.85;;;18.20;72.60;;;;;;4185454;28;20058;-78
2022/05/12 04:52:37;;;;;;;1.45;1.00;;;18.20;72.60;;;;;;4185391;28;20073;-79
2022/05/12 04:54:38;;;;;;;3.13;0.75;;;18.30;72.50;;;;;;4180272;28;20064;-78
2022/05/12 04:56:41;;;;;;;1.10;1.00;;;18.40;72.20;;;;;;4183765;28;20060;-78
2022/05/12 04:58:42;;;;;;;3.08;0.90;;;18.30;72.30;;;;;;4185147;28;20063;-79
2022/05/12 05:00:44;;;;;;;1.27;1.17;;;18.40;72.40;;;;;;4174958;28;20057;-79
2022/05/12 05:02:46;;;;;;;2.38;0.80;;;18.40;72.10;;;;;;4181189;28;20065;-78
2022/05/12 05:04:48;;;;;;;2.13;0.98;;;18.50;72.50;;;;;;4181955;28;20072;-78
2022/05/12 05:06:50;;;;;;;1.15;0.77;;;18.50;71.80;;;;;;4185437;28;20101;-78
2022/05/12 05:08:51;;;;;;;3.05;1.40;;;18.60;72.10;;;;;;4186057;28;20120;-78
2022/05/12 05:10:53;;;;;;;1.58;0.95;;;18.70;72.10;;;;;;4186756;28;20045;-77
2022/05/12 05:12:55;;;;;;;3.95;1.60;;;18.70;72.00;;;;;;4185196;28;20057;-79
2022/05/12 05:14:57;;;;;;;2.25;1.17;;;18.70;71.80;;;;;;4188361;28;20061;-78
2022/05/12 05:16:59;;;;;;;3.22;1.00;;;18.80;71.90;;;;;;4189124;28;20062;-79
2022/05/12 05:21:12;;;;;;;1.38;1.05;;;18.90;72.10;;;;;;4109407;28;19981;-75
2022/05/12 05:23:15;;;;;;;12.40;1.50;;;19.00;71.80;;;;;;4112869;28;20082;-77
2022/05/12 05:25:17;;;;;;;2.53;0.95;;;19.10;71.30;;;;;;4113037;28;20185;-76
2022/05/12 05:28:28;;;;;;;1.58;1.17;;;19.10;71.20;;;;;;4113190;28;20066;-76
2022/05/12 05:34:17;;;;;;;0.90;0.70;;;19.20;71.40;;;;;;3754433;26;20042;-78
2022/05/12 05:42:54;;;;;;;1.00;0.75;;;19.60;70.70;;;;;;4168290;28;20158;-81
2022/05/12 06:01:47;;;;;;;1.25;0.95;;;19.80;70.60;;;;;;4125734;28;20106;-79
2022/05/12 06:05:00;;;;;;;;;;;;;;;;;;;;;
2022/05/12 06:14:33;;;;;;;2.70;1.20;;;20.10;69.60;;;;;;4173784;28;20060;-78
2022/05/12 06:17:18;;;;;;;1.35;1.10;;;20.10;69.80;;;;;;4121316;28;20059;-78
2022/05/12 06:19:41;;;;;;;3.97;1.05;;;20.10;70.10;;;;;;4133712;22;20077;-78
2022/05/12 06:22:44;;;;;;;;;;;;;;;;;;;;;
2022/05/12 06:26:05;;;;;;;;;;;;;;;;;;;;;
2022/05/12 06:28:53;;;;;;;2.92;1.25;;;20.40;69.70;;;;;;4128148;28;20137;-79
2022/05/12 06:31:35;;;;;;;2.72;1.30;;;20.50;68.80;;;;;;4120397;28;20074;-77
2022/05/12 06:36:17;;;;;;;1.75;1.40;;;20.60;69.20;;;;;;4116352;28;20055;-78
2022/05/12 06:38:27;;;;;;;2.05;1.08;;;20.80;67.70;;;;;;4098963;28;20127;-77
2022/05/12 06:40:38;;;;;;;2.35;1.05;;;20.90;67.80;;;;;;4123609;28;20058;-76
2022/05/12 06:42:50;;;;;;;1.38;1.25;;;21.00;68.00;;;;;;4135583;28;20874;-77
2022/05/12 06:45:02;;;;;;;4.22;1.30;;;20.80;67.10;;;;;;4119489;28;20055;-76
2022/05/12 06:47:19;;;;;;;2.45;1.30;;;20.80;68.20;;;;;;4149057;28;20057;-76
2022/05/12 06:49:28;;;;;;;1.50;1.00;;;20.70;68.40;;;;;;4145226;28;20063;-77
2022/05/12 06:51:34;;;;;;;1.85;1.00;;;20.60;68.40;;;;;;4118159;28;20059;-76
2022/05/12 06:53:39;;;;;;;2.45;1.20;;;20.70;69.00;;;;;;4113101;28;21000;-76
2022/05/12 06:55:55;;;;;;;1.52;1.40;;;20.60;69.80;;;;;;4117504;28;20105;-77
2022/05/12 06:58:03;;;;;;;1.67;1.08;;;20.60;68.10;;;;;;4134015;28;20050;-76
2022/05/12 07:00:08;;;;;;;3.05;1.13;;;20.30;69.40;;;;;;4135837;28;20103;-75
2022/05/12 07:02:25;;;;;;;1.13;0.90;;;20.30;69.20;;;;;;4134383;28;20914;-77
2022/05/12 07:04:45;;;;;;;3.45;1.30;;;20.20;68.70;;;;;;4137164;28;20113;-76
2022/05/12 07:06:59;;;;;;;9.02;1.17;;;20.20;69.20;;;;;;4119369;28;20071;-78
2022/05/12 07:09:13;;;;;;;1.23;0.98;;;20.20;69.60;;;;;;4117641;28;20063;-76
2022/05/12 07:11:46;;;;;;;2.40;1.00;;;20.20;70.10;;;;;;4118033;28;20097;-75
2022/05/12 07:14:03;;;;;;;3.30;1.23;;;20.20;69.80;;;;;;4114007;28;20103;-76
2022/05/12 07:16:39;;;;;;;2.25;1.00;;;20.20;70.60;;;;;;4083865;28;20081;-76
2022/05/12 07:19:49;;;;;;;4.45;0.90;;;20.40;71.80;;;;;;4116764;28;20062;-73
2022/05/12 07:27:56;;;;;;;2.35;1.17;;;20.40;70.20;;;;;;4144795;28;20063;-76
2022/05/12 07:31:00;;;;;;;1.58;1.10;;;20.40;70.60;;;;;;4117672;28;20063;-75
2022/05/12 07:33:42;;;;;;;1.35;1.00;;;20.60;70.20;;;;;;4145982;28;20136;-78
2022/05/12 07:39:26;;;;;;;3.25;0.93;;;20.50;70.10;;;;;;4099142;28;20061;-73
2022/05/12 07:41:44;;;;;;;0.77;0.75;;;20.80;70.90;;;;;;4146840;28;20113;-76
2022/05/12 07:44:08;;;;;;;1.20;0.90;;;21.00;69.30;;;;;;4134268;28;20063;-75
2022/05/12 07:46:15;;;;;;;1.25;1.00;;;21.10;68.70;;;;;;4134541;28;20098;-77
2022/05/12 07:48:40;;;;;;;1.45;1.00;;;21.10;68.50;;;;;;4132796;28;20110;-76
2022/05/12 07:50:52;;;;;;;1.10;0.90;;;21.10;68.20;;;;;;4117664;28;20074;-77
2022/05/12 07:53:02;;;;;;;1.83;0.88;;;21.00;68.40;;;;;;4132332;28;20055;-76
2022/05/12 07:55:18;;;;;;;7.25;1.45;;;21.20;68.20;;;;;;4140815;28;20096;-76
2022/05/12 07:57:31;;;;;;;3.97;1.08;;;21.20;67.40;;;;;;4073867;28;20803;-75
2022/05/12 08:07:48;;;;;;;2.17;1.10;;;20.50;70.10;;;;;;4113092;28;20067;-76
2022/05/12 08:10:45;;;;;;;;;;;;;;;;;;;;;
2022/05/12 08:13:17;;;;;;;1.48;0.88;;;20.40;71.70;;;;;;4108870;28;20069;-74
2022/05/12 08:15:41;;;;;;;2.40;0.90;;;20.50;69.40;;;;;;4132409;28;20096;-76
2022/05/12 08:18:32;;;;;;;0.82;0.82;;;20.50;71.10;;;;;;4028864;29;20153;-75
2022/05/12 08:21:26;;;;;;;2.17;1.02;;;20.60;70.60;;;;;;4032633;29;20080;-75
2022/05/12 08:27:09;;;;;;;2.53;1.05;;;20.40;70.90;;;;;;3986597;29;20110;-76
2022/05/12 08:33:55;;;;;;;6.75;1.50;;;20.90;69.50;;;;;;4180876;28;20093;-77
2022/05/12 08:36:00;;;;;;;5.57;1.80;;;21.00;68.50;;;;;;4162040;28;20105;-76
2022/05/12 08:42:03;;;;;;;1.63;0.82;;;21.00;68.60;;;;;;4153968;28;20865;-77
2022/05/12 08:44:57;;;;;;;2.33;1.20;;;20.90;68.80;;;;;;4157790;28;20057;-77
2022/05/12 08:55:05;;;;;;;1.73;1.20;;;21.00;69.40;;;;;;4060799;29;20056;-76
2022/05/12 08:58:06;;;;;;;6.18;1.50;;;21.00;70.00;;;;;;4021623;29;20062;-76
2022/05/12 09:00:37;;;;;;;4.70;1.73;;;21.10;69.40;;;;;;4060595;29;20865;-76
2022/05/12 09:11:18;;;;;;;4.72;1.42;;;21.30;68.10;;;;;;4083087;28;20063;-76
2022/05/12 09:20:59;;;;;;;5.47;1.58;;;20.80;71.00;;;;;;4023921;29;20065;-77
2022/05/12 09:23:32;;;;;;;2.80;1.73;;;21.00;72.00;;;;;;3989518;29;20062;-76
2022/05/12 09:28:39;;;;;;;2.75;1.50;;;21.40;68.60;;;;;;4033255;29;20049;-76
2022/05/12 09:30:46;;;;;;;1.85;1.05;;;21.50;68.10;;;;;;4109788;28;20067;-77
2022/05/12 09:33:22;;;;;;;2.15;1.80;;;21.60;67.40;;;;;;4097801;28;20146;-80
2022/05/12 09:35:54;;;;;;;3.67;1.83;;;21.60;67.10;;;;;;4094810;28;20870;-75
2022/05/12 09:37:56;;;;;;;1.42;1.33;;;21.60;66.20;;;;;;4116949;28;20047;-77
2022/05/12 09:40:18;;;;;;;1.75;1.63;;;21.50;66.90;;;;;;4117680;28;20829;-77
2022/05/12 09:43:00;;;;;;;1.75;1.63;;;21.70;66.90;;;;;;4115798;28;20063;-78
2022/05/12 09:45:49;;;;;;;3.97;2.00;;;21.70;66.00;;;;;;4116089;28;20063;-78
2022/05/12 09:48:52;;;;;;;2.75;1.75;;;21.60;66.90;;;;;;4099881;28;20064;-79
2022/05/12 09:51:32;;;;;;;2.15;1.95;;;21.60;66.70;;;;;;4101324;28;20178;-79
2022/05/12 09:57:18;;;;;;;1.42;1.25;;;21.70;67.10;;;;;;4116794;28;20126;-78
2022/05/12 09:59:31;;;;;;;2.65;2.10;;;22.00;66.30;;;;;;4114091;28;20066;-77
2022/05/12 10:02:02;;;;;;;5.75;1.95;;;22.20;64.60;;;;;;4099469;28;20068;-78
2022/05/12 10:07:53;;;;;;;2.25;1.85;;;22.80;64.10;;;;;;4126877;28;20058;-79
2022/05/12 10:09:50;;;;;;;1.80;1.70;;;23.00;61.80;;;;;;4161411;28;20162;-77
2022/05/12 10:12:22;;;;;;;3.42;1.90;;;22.90;62.40;;;;;;4161367;28;20061;-76
2022/05/12 10:14:38;;;;;;;2.42;2.00;;;22.90;62.10;;;;;;4151380;28;20931;-77
2022/05/12 10:16:40;;;;;;;3.17;1.90;;;23.00;62.50;;;;;;4160932;28;20060;-78
2022/05/12 10:18:52;;;;;;;2.88;2.00;;;22.90;62.20;;;;;;4162031;28;20169;-77
2022/05/12 10:20:57;;;;;;;1.90;1.80;;;22.70;62.60;;;;;;4157706;28;20193;-78
2022/05/12 10:22:59;;;;;;;2.20;2.10;;;22.60;63.20;;;;;;4160625;28;20062;-79
2022/05/12 10:25:35;;;;;;;4.22;2.22;;;22.40;62.30;;;;;;4157128;28;20105;-77
2022/05/12 10:28:00;;;;;;;2.15;1.95;;;22.20;63.40;;;;;;4162670;28;20065;-79
2022/05/12 10:30:21;;;;;;;10.98;2.40;;;22.20;64.50;;;;;;4160797;28;20144;-78
2022/05/12 10:32:51;;;;;;;2.30;2.05;;;22.10;65.40;;;;;;4159878;28;20054;-77
2022/05/12 10:35:16;;;;;;;5.90;2.67;;;21.90;64.80;;;;;;4166870;28;20885;-79
2022/05/12 10:37:52;;;;;;;3.33;1.75;;;21.80;66.00;;;;;;4160071;28;20170;-78
2022/05/12 10:40:32;;;;;;;4.47;2.08;;;21.70;65.80;;;;;;4165302;28;20050;-79
2022/05/12 10:43:00;;;;;;;1.85;1.75;;;21.80;66.00;;;;;;4131971;28;20054;-79
2022/05/12 10:45:14;;;;;;;2.63;1.92;;;21.80;66.00;;;;;;4160474;28;20059;-78
2022/05/12 10:47:44;;;;;;;4.63;2.17;;;21.90;65.60;;;;;;4166986;28;20194;-78
2022/05/12 10:50:04;;;;;;;2.35;2.15;;;22.00;64.50;;;;;;4161778;28;20761;-79
2022/05/12 10:52:33;;;;;;;3.47;2.30;;;22.00;65.20;;;;;;4162900;28;20102;-78
2022/05/12 10:54:54;;;;;;;4.60;1.98;;;22.20;64.30;;;;;;4167131;28;20129;-78
2022/05/12 10:56:56;;;;;;;2.50;2.17;;;22.20;64.10;;;;;;4165680;28;20042;-79
2022/05/12 10:58:57;;;;;;;3.30;2.28;;;22.30;63.60;;;;;;4156150;28;20069;-79
2022/05/12 11:01:25;;;;;;;2.90;2.22;;;22.40;62.60;;;;;;4165723;28;20821;-79
2022/05/12 11:03:34;;;;;;;2.97;2.50;;;22.80;63.10;;;;;;4167918;28;20066;-78
2022/05/12 11:05:40;;;;;;;3.22;1.75;;;23.00;62.20;;;;;;4162720;28;20058;-78
2022/05/12 11:07:47;;;;;;;2.28;2.08;;;23.20;61.20;;;;;;4163590;28;20058;-78
2022/05/12 11:09:57;;;;;;;2.95;2.03;;;23.00;62.00;;;;;;4162451;28;20050;-79
2022/05/12 11:12:18;;;;;;;1.88;1.77;;;23.20;62.60;;;;;;4157534;28;20173;-78
2022/05/12 11:14:31;;;;;;;3.33;1.85;;;23.10;63.00;;;;;;4161834;28;20874;-79
2022/05/12 11:16:47;;;;;;;7.43;2.15;;;23.20;63.10;;;;;;4162507;28;20065;-79
2022/05/12 11:19:06;;;;;;;3.42;1.55;;;23.30;62.50;;;;;;4161537;28;20066;-79
2022/05/12 11:21:17;;;;;;;2.25;2.05;;;23.20;61.90;;;;;;4165186;28;21251;-75
2022/05/12 11:23:43;;;;;;;2.45;1.88;;;23.20;62.50;;;;;;4164495;28;20056;-80
2022/05/12 11:26:00;;;;;;;6.20;2.15;;;23.00;62.50;;;;;;4170401;28;20121;-79
2022/05/12 11:31:16;;;;;;;2.75;2.55;;;23.30;62.60;;;;;;4167493;28;20157;-79
2022/05/12 11:33:39;;;;;;;2.40;2.15;;;23.30;61.20;;;;;;4165865;28;20144;-77
2022/05/12 11:35:48;;;;;;;2.47;1.52;;;23.40;60.90;;;;;;4157824;28;20062;-78
2022/05/12 11:38:06;;;;;;;2.63;1.88;;;23.40;60.40;;;;;;4155352;28;20062;-78
2022/05/12 11:40:12;;;;;;;2.92;1.70;;;23.40;61.80;;;;;;4144702;28;20072;-76
2022/05/12 11:42:26;;;;;;;5.93;2.45;;;23.30;60.00;;;;;;4196313;22;20051;-74
2022/05/12 11:44:34;;;;;;;3.03;2.03;;;23.30;61.10;;;;;;4187373;28;20062;-74
2022/05/12 11:46:42;;;;;;;2.35;2.15;;;23.50;60.20;;;;;;4179999;28;20062;-75
2022/05/12 11:48:54;;;;;;;1.90;1.80;;;23.50;60.30;;;;;;4179589;28;20072;-75
2022/05/12 11:51:31;;;;;;;3.25;1.70;;;23.70;59.00;;;;;;4188395;28;20062;-75
2022/05/12 11:53:59;;;;;;;4.45;1.95;;;23.90;58.10;;;;;;4117317;28;20063;-75
2022/05/12 11:56:11;;;;;;;2.72;2.53;;;24.20;58.30;;;;;;4168242;28;20549;-77
2022/05/12 11:58:13;;;;;;;3.83;2.58;;;24.00;59.70;;;;;;4158989;28;20062;-78
2022/05/12 12:00:41;;;;;;;3.58;2.33;;;24.10;59.70;;;;;;4165888;28;20054;-77
2022/05/12 12:02:46;;;;;;;2.17;1.92;;;24.20;57.70;;;;;;4148217;28;20062;-74
2022/05/12 12:04:49;;;;;;;2.75;1.65;;;24.10;58.10;;;;;;4166255;28;20066;-75
2022/05/12 12:06:53;;;;;;;3.67;2.08;;;24.30;58.40;;;;;;4163774;28;20061;-74
2022/05/12 12:08:55;;;;;;;2.65;2.00;;;24.40;57.00;;;;;;4172377;28;20148;-75
2022/05/12 12:11:14;;;;;;;3.28;2.00;;;24.20;57.80;;;;;;4177370;28;20057;-75
2022/05/12 12:13:35;;;;;;;2.08;1.92;;;24.30;57.40;;;;;;4178702;28;20062;-74
2022/05/12 12:15:41;;;;;;;3.58;2.15;;;24.30;57.50;;;;;;4175261;28;20095;-75
2022/05/12 12:17:43;;;;;;;2.85;2.20;;;24.10;57.90;;;;;;4168235;28;20148;-75
2022/05/12 12:19:49;;;;;;;2.80;1.98;;;23.80;58.00;;;;;;4166509;28;20807;-75
2022/05/12 12:22:11;;;;;;;4.57;2.50;;;23.80;58.20;;;;;;4172079;28;20067;-74
2022/05/12 12:24:27;;;;;;;4.00;2.30;;;23.90;59.70;;;;;;4155219;28;20068;-75
2022/05/12 12:26:37;;;;;;;6.80;2.70;;;24.00;58.80;;;;;;4166853;28;20165;-75
2022/05/12 12:29:05;;;;;;;4.37;2.30;;;23.90;59.60;;;;;;4155395;28;20093;-75
2022/05/12 12:31:28;;;;;;;3.65;2.53;;;23.90;58.20;;;;;;4142204;28;21246;-75
2022/05/12 12:33:31;;;;;;;2.53;2.33;;;23.60;57.50;;;;;;4166180;28;20050;-75
2022/05/12 12:35:57;;;;;;;3.70;2.20;;;23.60;58.80;;;;;;4160652;28;20612;-75
2022/05/12 12:37:58;;;;;;;3.53;2.70;;;23.70;58.70;;;;;;4172246;28;20080;-74
2022/05/12 12:40:00;;;;;;;3.33;2.92;;;23.90;55.90;;;;;;4167547;28;20058;-74
2022/05/12 12:42:27;;;;;;;3.58;2.28;;;24.00;55.50;;;;;;4171221;28;20887;-74
2022/05/12 12:44:29;;;;;;;4.30;2.28;;;24.10;56.70;;;;;;4170970;28;21044;-75
2022/05/12 12:46:49;;;;;;;4.78;2.65;;;24.10;56.70;;;;;;4168857;28;21113;-74
2022/05/12 12:49:03;;;;;;;2.70;2.30;;;24.30;57.50;;;;;;4164544;28;20879;-76
2022/05/12 12:51:04;;;;;;;5.00;2.97;;;24.60;55.40;;;;;;4151837;28;20218;-78
2022/05/12 12:53:10;;;;;;;2.80;2.05;;;24.70;54.10;;;;;;4167140;28;20058;-76
2022/05/12 12:57:52;;;;;;;3.22;1.73;;;24.70;53.10;;;;;;4167885;28;20079;-77
2022/05/12 13:00:07;;;;;;;2.20;2.10;;;24.80;54.20;;;;;;4169934;28;20088;-78
2022/05/12 13:02:31;;;;;;;2.30;2.10;;;24.90;54.30;;;;;;4150421;28;20069;-76
2022/05/12 13:04:35;;;;;;;2.40;2.22;;;25.10;53.70;;;;;;4176908;28;20173;-76
2022/05/12 13:06:37;;;;;;;3.92;2.33;;;25.20;52.80;;;;;;4165780;28;20156;-76
2022/05/12 13:08:39;;;;;;;3.30;2.70;;;25.30;53.50;;;;;;4165638;28;20046;-76
2022/05/12 13:10:47;;;;;;;3.72;2.67;;;25.20;51.90;;;;;;4164784;28;20062;-76
2022/05/12 13:13:04;;;;;;;3.72;2.17;;;25.00;52.10;;;;;;4162853;28;20206;-76
2022/05/12 13:15:19;;;;;;;2.13;1.92;;;24.80;52.40;;;;;;4159246;28;20142;-75
2022/05/12 13:17:30;;;;;;;2.80;2.10;;;24.60;53.10;;;;;;4164387;28;20176;-75